Terminal Aerodrome Forecast
Issued by NWS

Home | Current Version | Previous Version | Graphics & Text | Print | Product List | Glossary On
Versions: 1 2 3 4 5 6 7 8 9 10 11 12 13 14 15 16 17 18 19 20 21 22 23 24 25 26 27
000
FTUS45 KGGW 051100
TAFGDV
TAF
KGDV 051123Z 0512/0612 04016KT P6SM VCSH BKN029 BKN120
      TEMPO 0512/0514 01020G35KT 6SM -TSRA BKN015 OVC030CB
     FM060000 36013KT P6SM BKN060
     FM060300 36007KT P6SM BKN070
      AMD LTD TO CLD VIS AND WIND=

USA.gov is the U.S. government's official web portal to all federal, state and local government web resources and services.